sensor_id;sensor_type;location;lat;lon;timestamp;pressure;altitude;pressure_sealevel;temperature;humidity
41467;BME280;27205;53.690;19.948;2023-02-04T00:02:45;99888.96;;;-0.55;100.00
41467;BME280;27205;53.690;19.948;2023-02-04T00:07:48;99899.02;;;-0.59;100.00
41467;BME280;27205;53.690;19.948;2023-02-04T00:12:52;99910.89;;;-0.64;100.00
41467;BME280;27205;53.690;19.948;2023-02-04T00:17:56;99923.48;;;-0.66;100.00
41467;BME280;27205;53.690;19.948;2023-02-04T00:22:59;99942.65;;;-0.68;100.00
41467;BME280;27205;53.690;19.948;2023-02-04T00:28:03;99961.38;;;-0.71;100.00
41467;BME280;27205;53.690;19.948;2023-02-04T00:33:08;99976.27;;;-0.71;100.00
41467;BME280;27205;53.690;19.948;2023-02-04T00:38:11;99990.59;;;-0.74;100.00
41467;BME280;27205;53.690;19.948;2023-02-04T00:43:15;100001.64;;;-0.75;100.00
41467;BME280;27205;53.690;19.948;2023-02-04T00:48:19;100021.58;;;-0.74;100.00
41467;BME280;27205;53.690;19.948;2023-02-04T00:53:23;100047.67;;;-0.70;100.00
41467;BME280;27205;53.690;19.948;2023-02-04T00:58:27;100066.45;;;-0.70;100.00
41467;BME280;27205;53.690;19.948;2023-02-04T01:03:30;100075.34;;;-0.70;100.00
41467;BME280;27205;53.690;19.948;2023-02-04T01:08:34;100086.16;;;-0.72;100.00
41467;BME280;27205;53.690;19.948;2023-02-04T01:13:37;100090.65;;;-0.78;100.00
41467;BME280;27205;53.690;19.948;2023-02-04T01:18:41;100090.43;;;-0.81;100.00
41467;BME280;27205;53.690;19.948;2023-02-04T01:23:44;100104.11;;;-0.86;100.00
41467;BME280;27205;53.690;19.948;2023-02-04T01:28:48;100105.75;;;-0.89;100.00
41467;BME280;27205;53.690;19.948;2023-02-04T01:33:52;100122.73;;;-0.92;100.00
41467;BME280;27205;53.690;19.948;2023-02-04T01:38:55;100140.97;;;-0.93;100.00
41467;BME280;27205;53.690;19.948;2023-02-04T01:44:00;100163.74;;;-0.92;100.00
41467;BME280;27205;53.690;19.948;2023-02-04T01:49:04;100187.39;;;-0.87;100.00
41467;BME280;27205;53.690;19.948;2023-02-04T01:54:11;100201.27;;;-0.83;100.00
41467;BME280;27205;53.690;19.948;2023-02-04T01:59:17;100211.17;;;-0.82;100.00
41467;BME280;27205;53.690;19.948;2023-02-04T02:04:31;100230.03;;;-0.80;100.00
41467;BME280;27205;53.690;19.948;2023-02-04T02:09:35;100254.67;;;-0.75;100.00
41467;BME280;27205;53.690;19.948;2023-02-04T02:14:39;100265.71;;;-0.70;100.00
41467;BME280;27205;53.690;19.948;2023-02-04T02:19:43;100277.23;;;-0.71;100.00
41467;BME280;27205;53.690;19.948;2023-02-04T02:24:47;100301.18;;;-0.74;100.00
41467;BME280;27205;53.690;19.948;2023-02-04T02:29:50;100314.77;;;-0.83;100.00
41467;BME280;27205;53.690;19.948;2023-02-04T02:34:54;100330.36;;;-0.94;100.00
41467;BME280;27205;53.690;19.948;2023-02-04T02:39:57;100346.77;;;-1.09;100.00
41467;BME280;27205;53.690;19.948;2023-02-04T02:45:07;100360.02;;;-1.23;100.00
41467;BME280;27205;53.690;19.948;2023-02-04T02:50:16;100377.71;;;-1.35;100.00
41467;BME280;27205;53.690;19.948;2023-02-04T02:55:24;100391.65;;;-1.44;100.00
41467;BME280;27205;53.690;19.948;2023-02-04T03:00:28;100393.77;;;-1.53;100.00
41467;BME280;27205;53.690;19.948;2023-02-04T03:05:37;100398.40;;;-1.63;100.00
41467;BME280;27205;53.690;19.948;2023-02-04T03:10:44;100416.73;;;-1.71;100.00
41467;BME280;27205;53.690;19.948;2023-02-04T03:15:47;100435.80;;;-1.80;100.00
41467;BME280;27205;53.690;19.948;2023-02-04T03:20:51;100453.17;;;-1.88;100.00
41467;BME280;27205;53.690;19.948;2023-02-04T03:25:55;100464.08;;;-1.93;100.00
41467;BME280;27205;53.690;19.948;2023-02-04T03:30:59;100476.66;;;-2.00;100.00
41467;BME280;27205;53.690;19.948;2023-02-04T03:36:03;100491.89;;;-2.05;100.00
41467;BME280;27205;53.690;19.948;2023-02-04T03:41:06;100511.86;;;-2.13;100.00
41467;BME280;27205;53.690;19.948;2023-02-04T03:46:10;100522.06;;;-2.18;100.00
41467;BME280;27205;53.690;19.948;2023-02-04T03:51:13;100527.85;;;-2.26;100.00
41467;BME280;27205;53.690;19.948;2023-02-04T03:56:17;100536.47;;;-2.34;100.00
41467;BME280;27205;53.690;19.948;2023-02-04T04:01:21;100546.42;;;-2.40;100.00
41467;BME280;27205;53.690;19.948;2023-02-04T04:06:24;100553.88;;;-2.43;100.00
41467;BME280;27205;53.690;19.948;2023-02-04T04:11:28;100568.84;;;-2.47;100.00
41467;BME280;27205;53.690;19.948;2023-02-04T04:16:31;100571.95;;;-2.51;100.00
41467;BME280;27205;53.690;19.948;2023-02-04T04:21:35;100578.50;;;-2.57;100.00
41467;BME280;27205;53.690;19.948;2023-02-04T04:26:38;100588.71;;;-2.60;100.00
41467;BME280;27205;53.690;19.948;2023-02-04T04:31:42;100599.34;;;-2.61;100.00
41467;BME280;27205;53.690;19.948;2023-02-04T04:36:47;100609.34;;;-2.62;100.00
41467;BME280;27205;53.690;19.948;2023-02-04T04:41:50;100626.59;;;-2.62;100.00
41467;BME280;27205;53.690;19.948;2023-02-04T04:46:54;100655.27;;;-2.66;100.00
41467;BME280;27205;53.690;19.948;2023-02-04T04:51:57;100661.35;;;-2.72;100.00
41467;BME280;27205;53.690;19.948;2023-02-04T04:57:01;100664.13;;;-2.76;100.00
41467;BME280;27205;53.690;19.948;2023-02-04T05:02:04;100667.38;;;-2.80;100.00
41467;BME280;27205;53.690;19.948;2023-02-04T05:07:08;100677.54;;;-2.87;100.00
41467;BME280;27205;53.690;19.948;2023-02-04T05:12:12;100684.66;;;-2.89;100.00
41467;BME280;27205;53.690;19.948;2023-02-04T05:17:15;100700.99;;;-2.93;100.00
41467;BME280;27205;53.690;19.948;2023-02-04T05:22:19;100708.63;;;-2.97;100.00
41467;BME280;27205;53.690;19.948;2023-02-04T05:27:22;100718.65;;;-3.00;100.00
41467;BME280;27205;53.690;19.948;2023-02-04T05:32:26;100729.90;;;-3.00;100.00
41467;BME280;27205;53.690;19.948;2023-02-04T05:37:30;100751.59;;;-3.01;100.00
41467;BME280;27205;53.690;19.948;2023-02-04T05:42:33;100762.06;;;-2.97;100.00
41467;BME280;27205;53.690;19.948;2023-02-04T05:47:37;100764.61;;;-2.83;100.00
41467;BME280;27205;53.690;19.948;2023-02-04T05:52:41;100770.86;;;-2.73;100.00
41467;BME280;27205;53.690;19.948;2023-02-04T05:57:44;100780.40;;;-2.64;100.00
41467;BME280;27205;53.690;19.948;2023-02-04T06:02:48;100791.95;;;-2.59;100.00
41467;BME280;27205;53.690;19.948;2023-02-04T06:07:51;100805.16;;;-2.52;100.00
41467;BME280;27205;53.690;19.948;2023-02-04T06:12:55;100812.77;;;-2.44;100.00
41467;BME280;27205;53.690;19.948;2023-02-04T06:17:59;100820.83;;;-2.41;100.00
41467;BME280;27205;53.690;19.948;2023-02-04T06:23:02;100835.61;;;-2.37;100.00
41467;BME280;27205;53.690;19.948;2023-02-04T06:28:06;100848.88;;;-2.31;100.00
41467;BME280;27205;53.690;19.948;2023-02-04T06:33:09;100854.51;;;-2.21;100.00
41467;BME280;27205;53.690;19.948;2023-02-04T06:38:13;100843.15;;;-2.08;100.00
41467;BME280;27205;53.690;19.948;2023-02-04T06:43:16;100850.23;;;-1.97;100.00
41467;BME280;27205;53.690;19.948;2023-02-04T06:48:20;100859.80;;;-1.87;100.00
41467;BME280;27205;53.690;19.948;2023-02-04T06:53:24;100879.57;;;-1.81;100.00
41467;BME280;27205;53.690;19.948;2023-02-04T06:58:27;100898.44;;;-1.72;100.00
41467;BME280;27205;53.690;19.948;2023-02-04T07:03:31;100916.80;;;-1.61;100.00
41467;BME280;27205;53.690;19.948;2023-02-04T07:08:34;100919.67;;;-1.54;100.00
41467;BME280;27205;53.690;19.948;2023-02-04T07:13:38;100910.36;;;-1.47;100.00
41467;BME280;27205;53.690;19.948;2023-02-04T07:18:42;100915.59;;;-1.35;100.00
41467;BME280;27205;53.690;19.948;2023-02-04T07:23:46;100914.14;;;-1.29;100.00
41467;BME280;27205;53.690;19.948;2023-02-04T07:28:50;100923.11;;;-1.28;100.00
41467;BME280;27205;53.690;19.948;2023-02-04T07:33:54;100931.45;;;-1.22;100.00
41467;BME280;27205;53.690;19.948;2023-02-04T07:38:57;100934.14;;;-1.10;100.00
41467;BME280;27205;53.690;19.948;2023-02-04T07:44:01;100949.59;;;-0.90;100.00
41467;BME280;27205;53.690;19.948;2023-02-04T07:49:05;100948.56;;;-0.74;100.00
41467;BME280;27205;53.690;19.948;2023-02-04T07:54:09;100952.72;;;-0.54;100.00
41467;BME280;27205;53.690;19.948;2023-02-04T07:59:12;100958.46;;;-0.36;100.00
41467;BME280;27205;53.690;19.948;2023-02-04T08:04:16;100956.52;;;-0.21;100.00
41467;BME280;27205;53.690;19.948;2023-02-04T08:09:20;100954.43;;;-0.04;100.00
41467;BME280;27205;53.690;19.948;2023-02-04T08:14:23;100956.23;;;-0.01;100.00
41467;BME280;27205;53.690;19.948;2023-02-04T08:19:27;100981.23;;;-0.08;100.00
41467;BME280;27205;53.690;19.948;2023-02-04T08:24:33;100996.00;;;-0.10;100.00
41467;BME280;27205;53.690;19.948;2023-02-04T08:29:36;101006.83;;;-0.09;100.00
41467;BME280;27205;53.690;19.948;2023-02-04T08:34:40;101015.30;;;0.02;100.00
41467;BME280;27205;53.690;19.948;2023-02-04T08:39:44;101023.27;;;0.03;100.00
41467;BME280;27205;53.690;19.948;2023-02-04T08:44:48;101033.63;;;0.02;100.00
41467;BME280;27205;53.690;19.948;2023-02-04T08:49:52;101036.64;;;0.00;100.00
41467;BME280;27205;53.690;19.948;2023-02-04T08:54:55;101035.61;;;0.07;100.00
41467;BME280;27205;53.690;19.948;2023-02-04T08:59:59;101048.42;;;0.21;100.00
41467;BME280;27205;53.690;19.948;2023-02-04T09:05:03;101049.14;;;0.30;100.00
41467;BME280;27205;53.690;19.948;2023-02-04T09:10:07;101051.86;;;0.42;100.00
41467;BME280;27205;53.690;19.948;2023-02-04T09:15:11;101063.02;;;0.73;100.00
41467;BME280;27205;53.690;19.948;2023-02-04T09:20:15;101076.46;;;0.79;100.00
41467;BME280;27205;53.690;19.948;2023-02-04T09:25:18;101087.68;;;0.88;100.00
41467;BME280;27205;53.690;19.948;2023-02-04T09:30:22;101088.46;;;0.99;100.00
41467;BME280;27205;53.690;19.948;2023-02-04T09:35:26;101096.84;;;1.02;100.00
41467;BME280;27205;53.690;19.948;2023-02-04T09:40:32;101101.37;;;0.95;100.00
41467;BME280;27205;53.690;19.948;2023-02-04T09:45:36;101093.70;;;0.97;100.00
41467;BME280;27205;53.690;19.948;2023-02-04T09:50:40;101100.33;;;1.03;100.00
41467;BME280;27205;53.690;19.948;2023-02-04T09:55:46;101105.88;;;1.09;100.00
41467;BME280;27205;53.690;19.948;2023-02-04T10:00:59;101104.23;;;1.17;100.00
41467;BME280;27205;53.690;19.948;2023-02-04T10:06:04;101097.95;;;1.19;100.00
41467;BME280;27205;53.690;19.948;2023-02-04T10:11:08;101104.77;;;1.32;100.00
41467;BME280;27205;53.690;19.948;2023-02-04T10:16:14;101106.40;;;1.31;100.00
41467;BME280;27205;53.690;19.948;2023-02-04T10:21:30;101116.10;;;1.46;100.00
41467;BME280;27205;53.690;19.948;2023-02-04T10:26:39;101120.77;;;1.69;100.00
41467;BME280;27205;53.690;19.948;2023-02-04T10:31:44;101123.42;;;1.92;100.00
41467;BME280;27205;53.690;19.948;2023-02-04T10:36:53;101128.43;;;2.01;100.00
41467;BME280;27205;53.690;19.948;2023-02-04T10:42:00;101130.18;;;2.19;100.00
41467;BME280;27205;53.690;19.948;2023-02-04T10:47:12;101130.63;;;2.10;100.00
41467;BME280;27205;53.690;19.948;2023-02-04T10:52:18;101137.41;;;2.23;100.00
41467;BME280;27205;53.690;19.948;2023-02-04T10:57:26;101138.30;;;2.38;100.00
41467;BME280;27205;53.690;19.948;2023-02-04T11:07:49;101144.39;;;2.19;100.00
41467;BME280;27205;53.690;19.948;2023-02-04T11:18:05;101156.30;;;2.31;100.00
41467;BME280;27205;53.690;19.948;2023-02-04T11:28:28;101174.27;;;2.45;100.00
41467;BME280;27205;53.690;19.948;2023-02-04T11:33:41;101170.77;;;2.38;100.00
41467;BME280;27205;53.690;19.948;2023-02-04T11:38:46;101167.45;;;2.49;100.00
41467;BME280;27205;53.690;19.948;2023-02-04T11:43:52;101167.91;;;2.47;100.00
41467;BME280;27205;53.690;19.948;2023-02-04T11:48:57;101176.33;;;2.24;100.00
41467;BME280;27205;53.690;19.948;2023-02-04T11:54:01;101180.09;;;2.12;100.00
41467;BME280;27205;53.690;19.948;2023-02-04T11:59:04;101189.95;;;2.33;100.00
41467;BME280;27205;53.690;19.948;2023-02-04T12:04:23;101202.31;;;2.40;100.00
41467;BME280;27205;53.690;19.948;2023-02-04T12:09:29;101195.48;;;2.16;100.00
41467;BME280;27205;53.690;19.948;2023-02-04T12:14:36;101208.06;;;1.98;100.00
41467;BME280;27205;53.690;19.948;2023-02-04T12:19:39;101215.54;;;1.88;100.00
41467;BME280;27205;53.690;19.948;2023-02-04T12:24:43;101216.98;;;2.01;100.00
41467;BME280;27205;53.690;19.948;2023-02-04T12:29:47;101221.31;;;2.13;100.00
41467;BME280;27205;53.690;19.948;2023-02-04T12:34:50;101227.42;;;2.26;100.00
41467;BME280;27205;53.690;19.948;2023-02-04T12:39:54;101235.30;;;1.97;100.00
41467;BME280;27205;53.690;19.948;2023-02-04T12:44:58;101237.55;;;1.84;100.00
41467;BME280;27205;53.690;19.948;2023-02-04T12:50:02;101242.27;;;1.94;100.00
41467;BME280;27205;53.690;19.948;2023-02-04T12:55:07;101240.17;;;1.81;100.00
41467;BME280;27205;53.690;19.948;2023-02-04T13:00:12;101242.77;;;1.73;100.00
41467;BME280;27205;53.690;19.948;2023-02-04T13:05:17;101246.85;;;1.68;100.00
41467;BME280;27205;53.690;19.948;2023-02-04T13:10:20;101241.15;;;1.51;100.00
41467;BME280;27205;53.690;19.948;2023-02-04T13:15:26;101251.63;;;1.41;100.00
41467;BME280;27205;53.690;19.948;2023-02-04T13:20:29;101248.84;;;1.42;100.00
41467;BME280;27205;53.690;19.948;2023-02-04T13:25:33;101248.23;;;1.54;100.00
41467;BME280;27205;53.690;19.948;2023-02-04T13:30:37;101244.20;;;1.67;100.00
41467;BME280;27205;53.690;19.948;2023-02-04T13:35:40;101252.19;;;1.66;100.00
41467;BME280;27205;53.690;19.948;2023-02-04T13:40:44;101259.08;;;1.88;100.00
41467;BME280;27205;53.690;19.948;2023-02-04T13:45:47;101260.14;;;2.13;100.00
41467;BME280;27205;53.690;19.948;2023-02-04T13:50:51;101265.12;;;2.14;100.00
41467;BME280;27205;53.690;19.948;2023-02-04T13:55:55;101278.49;;;1.91;100.00
41467;BME280;27205;53.690;19.948;2023-02-04T14:00:58;101292.71;;;1.49;100.00
41467;BME280;27205;53.690;19.948;2023-02-04T14:06:02;101296.70;;;1.07;100.00
41467;BME280;27205;53.690;19.948;2023-02-04T14:11:06;101293.54;;;0.93;100.00
41467;BME280;27205;53.690;19.948;2023-02-04T14:16:09;101304.14;;;0.86;100.00
41467;BME280;27205;53.690;19.948;2023-02-04T14:21:13;101296.98;;;0.90;100.00
41467;BME280;27205;53.690;19.948;2023-02-04T14:26:17;101304.42;;;0.97;100.00
41467;BME280;27205;53.690;19.948;2023-02-04T14:31:20;101304.52;;;1.14;100.00
41467;BME280;27205;53.690;19.948;2023-02-04T14:36:24;101315.63;;;1.25;100.00
41467;BME280;27205;53.690;19.948;2023-02-04T14:41:28;101329.66;;;1.02;100.00
41467;BME280;27205;53.690;19.948;2023-02-04T14:46:33;101339.33;;;0.85;100.00
41467;BME280;27205;53.690;19.948;2023-02-04T14:51:37;101344.10;;;0.70;100.00
41467;BME280;27205;53.690;19.948;2023-02-04T14:56:41;101331.34;;;0.51;100.00
41467;BME280;27205;53.690;19.948;2023-02-04T15:01:46;101330.58;;;0.34;100.00
41467;BME280;27205;53.690;19.948;2023-02-04T15:06:50;101344.80;;;0.15;100.00
41467;BME280;27205;53.690;19.948;2023-02-04T15:11:56;101345.08;;;0.02;100.00
41467;BME280;27205;53.690;19.948;2023-02-04T15:16:59;101360.08;;;-0.03;100.00
41467;BME280;27205;53.690;19.948;2023-02-04T15:22:03;101373.56;;;-0.16;100.00
41467;BME280;27205;53.690;19.948;2023-02-04T15:27:07;101374.19;;;-0.31;100.00
41467;BME280;27205;53.690;19.948;2023-02-04T15:32:10;101372.22;;;-0.47;100.00
41467;BME280;27205;53.690;19.948;2023-02-04T15:37:14;101374.05;;;-0.71;100.00
41467;BME280;27205;53.690;19.948;2023-02-04T15:42:18;101384.11;;;-0.95;100.00
41467;BME280;27205;53.690;19.948;2023-02-04T15:47:21;101382.79;;;-1.15;100.00
41467;BME280;27205;53.690;19.948;2023-02-04T15:52:25;101389.20;;;-1.30;100.00
41467;BME280;27205;53.690;19.948;2023-02-04T15:57:31;101395.00;;;-1.41;100.00
41467;BME280;27205;53.690;19.948;2023-02-04T16:02:34;101406.02;;;-1.49;100.00
41467;BME280;27205;53.690;19.948;2023-02-04T16:07:38;101403.14;;;-1.54;100.00
41467;BME280;27205;53.690;19.948;2023-02-04T16:12:42;101407.45;;;-1.58;100.00
41467;BME280;27205;53.690;19.948;2023-02-04T16:17:46;101416.95;;;-1.60;100.00
41467;BME280;27205;53.690;19.948;2023-02-04T16:22:49;101424.99;;;-1.64;100.00
41467;BME280;27205;53.690;19.948;2023-02-04T16:27:53;101434.52;;;-1.69;100.00
41467;BME280;27205;53.690;19.948;2023-02-04T16:32:57;101432.63;;;-1.74;100.00
41467;BME280;27205;53.690;19.948;2023-02-04T16:38:00;101430.11;;;-1.76;100.00
41467;BME280;27205;53.690;19.948;2023-02-04T16:43:04;101432.34;;;-1.73;100.00
41467;BME280;27205;53.690;19.948;2023-02-04T16:48:07;101441.03;;;-1.71;100.00
41467;BME280;27205;53.690;19.948;2023-02-04T16:53:11;101441.30;;;-1.73;100.00
41467;BME280;27205;53.690;19.948;2023-02-04T16:58:18;101449.27;;;-1.76;100.00
41467;BME280;27205;53.690;19.948;2023-02-04T17:03:22;101461.23;;;-1.82;100.00
41467;BME280;27205;53.690;19.948;2023-02-04T17:08:25;101467.87;;;-1.84;100.00
41467;BME280;27205;53.690;19.948;2023-02-04T17:13:29;101463.63;;;-1.88;100.00
41467;BME280;27205;53.690;19.948;2023-02-04T17:18:33;101461.75;;;-1.89;100.00
41467;BME280;27205;53.690;19.948;2023-02-04T17:23:37;101478.31;;;-1.90;100.00
41467;BME280;27205;53.690;19.948;2023-02-04T17:28:41;101478.49;;;-1.92;100.00
41467;BME280;27205;53.690;19.948;2023-02-04T17:33:44;101490.02;;;-1.91;100.00
41467;BME280;27205;53.690;19.948;2023-02-04T17:38:48;101498.91;;;-1.87;100.00
41467;BME280;27205;53.690;19.948;2023-02-04T17:43:52;101507.45;;;-1.84;100.00
41467;BME280;27205;53.690;19.948;2023-02-04T17:48:56;101520.45;;;-1.80;100.00
41467;BME280;27205;53.690;19.948;2023-02-04T17:54:00;101532.33;;;-1.80;100.00
41467;BME280;27205;53.690;19.948;2023-02-04T17:59:08;101537.89;;;-1.83;100.00
41467;BME280;27205;53.690;19.948;2023-02-04T18:04:13;101544.11;;;-1.81;100.00
41467;BME280;27205;53.690;19.948;2023-02-04T18:09:17;101545.80;;;-1.77;100.00
41467;BME280;27205;53.690;19.948;2023-02-04T18:14:26;101545.42;;;-1.71;100.00
41467;BME280;27205;53.690;19.948;2023-02-04T18:19:32;101551.12;;;-1.72;100.00
41467;BME280;27205;53.690;19.948;2023-02-04T18:24:41;101561.08;;;-1.78;100.00
41467;BME280;27205;53.690;19.948;2023-02-04T18:29:48;101577.59;;;-1.90;100.00
41467;BME280;27205;53.690;19.948;2023-02-04T18:34:54;101587.80;;;-2.03;100.00
41467;BME280;27205;53.690;19.948;2023-02-04T18:40:21;101589.73;;;-2.17;100.00
41467;BME280;27205;53.690;19.948;2023-02-04T18:45:30;101602.65;;;-2.33;100.00
41467;BME280;27205;53.690;19.948;2023-02-04T18:50:34;101614.62;;;-2.48;100.00
41467;BME280;27205;53.690;19.948;2023-02-04T18:55:46;101623.33;;;-2.59;100.00
41467;BME280;27205;53.690;19.948;2023-02-04T19:01:00;101625.77;;;-2.65;100.00
41467;BME280;27205;53.690;19.948;2023-02-04T19:06:24;101631.59;;;-2.73;100.00
41467;BME280;27205;53.690;19.948;2023-02-04T19:11:40;101638.39;;;-2.83;100.00
41467;BME280;27205;53.690;19.948;2023-02-04T19:16:45;101639.60;;;-2.89;100.00
41467;BME280;27205;53.690;19.948;2023-02-04T19:21:49;101654.31;;;-2.94;100.00
41467;BME280;27205;53.690;19.948;2023-02-04T19:26:58;101657.96;;;-3.00;100.00
41467;BME280;27205;53.690;19.948;2023-02-04T19:32:25;101657.49;;;-3.05;100.00
41467;BME280;27205;53.690;19.948;2023-02-04T19:37:38;101666.83;;;-3.09;100.00
41467;BME280;27205;53.690;19.948;2023-02-04T19:42:46;101677.20;;;-3.12;100.00
41467;BME280;27205;53.690;19.948;2023-02-04T19:47:54;101684.54;;;-3.16;100.00
41467;BME280;27205;53.690;19.948;2023-02-04T19:53:12;101696.34;;;-3.20;100.00
41467;BME280;27205;53.690;19.948;2023-02-04T20:03:46;101697.45;;;-3.28;100.00
41467;BME280;27205;53.690;19.948;2023-02-04T20:09:00;101708.31;;;-3.33;100.00
41467;BME280;27205;53.690;19.948;2023-02-04T20:19:20;101713.60;;;-3.43;100.00
41467;BME280;27205;53.690;19.948;2023-02-04T20:24:27;101724.45;;;-3.49;100.00
41467;BME280;27205;53.690;19.948;2023-02-04T20:29:35;101733.10;;;-3.53;100.00
41467;BME280;27205;53.690;19.948;2023-02-04T20:34:39;101742.69;;;-3.56;100.00
41467;BME280;27205;53.690;19.948;2023-02-04T20:39:44;101746.84;;;-3.60;100.00
41467;BME280;27205;53.690;19.948;2023-02-04T20:44:48;101748.42;;;-3.65;100.00
41467;BME280;27205;53.690;19.948;2023-02-04T20:49:53;101757.50;;;-3.72;100.00
41467;BME280;27205;53.690;19.948;2023-02-04T20:54:59;101759.00;;;-3.79;100.00
41467;BME280;27205;53.690;19.948;2023-02-04T21:00:12;101770.17;;;-3.85;100.00
41467;BME280;27205;53.690;19.948;2023-02-04T21:05:21;101780.40;;;-3.93;100.00
41467;BME280;27205;53.690;19.948;2023-02-04T21:10:28;101794.81;;;-3.98;100.00
41467;BME280;27205;53.690;19.948;2023-02-04T21:15:31;101810.70;;;-4.05;100.00
41467;BME280;27205;53.690;19.948;2023-02-04T21:20:36;101816.09;;;-4.11;100.00
41467;BME280;27205;53.690;19.948;2023-02-04T21:25:40;101817.98;;;-4.15;100.00
41467;BME280;27205;53.690;19.948;2023-02-04T21:30:43;101824.31;;;-4.21;100.00
41467;BME280;27205;53.690;19.948;2023-02-04T21:35:48;101826.02;;;-4.24;100.00
41467;BME280;27205;53.690;19.948;2023-02-04T21:40:52;101828.56;;;-4.22;100.00
41467;BME280;27205;53.690;19.948;2023-02-04T21:45:55;101822.80;;;-4.19;100.00
41467;BME280;27205;53.690;19.948;2023-02-04T21:50:59;101820.51;;;-4.18;100.00
41467;BME280;27205;53.690;19.948;2023-02-04T21:56:03;101825.93;;;-4.19;100.00
41467;BME280;27205;53.690;19.948;2023-02-04T22:01:08;101836.92;;;-4.22;100.00
41467;BME280;27205;53.690;19.948;2023-02-04T22:06:13;101828.35;;;-4.28;100.00
41467;BME280;27205;53.690;19.948;2023-02-04T22:11:17;101828.91;;;-4.33;100.00
41467;BME280;27205;53.690;19.948;2023-02-04T22:16:20;101837.75;;;-4.34;100.00
41467;BME280;27205;53.690;19.948;2023-02-04T22:21:25;101836.67;;;-4.33;100.00
41467;BME280;27205;53.690;19.948;2023-02-04T22:26:31;101836.11;;;-4.34;100.00
41467;BME280;27205;53.690;19.948;2023-02-04T22:31:35;101835.13;;;-4.33;100.00
41467;BME280;27205;53.690;19.948;2023-02-04T22:36:39;101840.52;;;-4.35;100.00
41467;BME280;27205;53.690;19.948;2023-02-04T22:41:42;101840.64;;;-4.35;100.00
41467;BME280;27205;53.690;19.948;2023-02-04T22:46:46;101843.54;;;-4.34;100.00
41467;BME280;27205;53.690;19.948;2023-02-04T22:51:52;101845.02;;;-4.32;100.00
41467;BME280;27205;53.690;19.948;2023-02-04T22:56:56;101850.92;;;-4.30;100.00
41467;BME280;27205;53.690;19.948;2023-02-04T23:02:02;101856.84;;;-4.30;100.00
41467;BME280;27205;53.690;19.948;2023-02-04T23:07:06;101871.30;;;-4.31;100.00
41467;BME280;27205;53.690;19.948;2023-02-04T23:12:10;101873.25;;;-4.34;100.00
41467;BME280;27205;53.690;19.948;2023-02-04T23:17:17;101873.09;;;-4.36;100.00
41467;BME280;27205;53.690;19.948;2023-02-04T23:29:19;101872.56;;;-4.42;100.00
41467;BME280;27205;53.690;19.948;2023-02-04T23:34:23;101872.92;;;-4.45;100.00
41467;BME280;27205;53.690;19.948;2023-02-04T23:39:27;101875.40;;;-4.42;100.00
41467;BME280;27205;53.690;19.948;2023-02-04T23:44:31;101873.73;;;-4.36;100.00
41467;BME280;27205;53.690;19.948;2023-02-04T23:49:34;101872.03;;;-4.25;100.00
41467;BME280;27205;53.690;19.948;2023-02-04T23:54:38;101866.08;;;-4.14;100.00
41467;BME280;27205;53.690;19.948;2023-02-04T23:59:43;101865.15;;;-4.06;100.00
